Embarrass, Wisconsin
Current Conditions -  °F | °C
As of 3:55 AM on Saturday 25 Oct 2014 (Local Time) from KCLI Reporting Station
Scattered Clouds Scattered Clouds  
Wind Chill: 55°   Ceiling: Unl
Heat Index: 55°   Visibility: 7mi
Dew Point: 52°   Wind: 8mph
Humidity: 88%   Direction: 270°W
Pressure: 29.81"   Gusts: NA
Location:  44.67°N, 88.71°W
Report Text: KCLI 250855Z AUTO 27007KT 7SM SCT012 13/11 A2981 RMK AO2
Loading
Personal Weather Stations






























Interactive Weather Map New forecast layout! Learn more

10-Day Weather Forecast

Advertisements
Track Severe Weather on mobile